createdAt,value
2022-08-17T00:00:33.284Z,20.06
2022-08-17T00:03:26.706Z,20.07
2022-08-17T00:06:21.873Z,20.07
2022-08-17T00:09:07.072Z,20.10
2022-08-17T00:12:40.661Z,20.11
2022-08-17T00:14:56.957Z,20.13
2022-08-17T00:17:42.645Z,19.96
2022-08-17T00:20:30.511Z,19.82
2022-08-17T00:23:19.446Z,19.90
2022-08-17T00:26:04.679Z,19.98
2022-08-17T00:28:50.069Z,19.99
2022-08-17T00:31:37.509Z,19.98
2022-08-17T00:34:22.889Z,19.95
2022-08-17T00:37:08.344Z,19.90
2022-08-17T00:39:53.809Z,19.87
2022-08-17T00:42:40.246Z,19.84
2022-08-17T00:45:26.727Z,19.83
2022-08-17T00:48:29.340Z,19.80
2022-08-17T00:51:23.080Z,19.72
2022-08-17T00:54:25.450Z,19.65
2022-08-17T00:57:24.440Z,19.70
2022-08-17T01:00:19.033Z,19.43
2022-08-17T01:03:15.242Z,19.59
2022-08-17T01:06:03.069Z,19.63
2022-08-17T01:08:49.795Z,19.60
2022-08-17T01:11:44.190Z,19.55
2022-08-17T01:14:29.285Z,19.53
2022-08-17T01:17:14.759Z,19.53
2022-08-17T01:20:00.078Z,19.48
2022-08-17T01:22:45.520Z,19.45
2022-08-17T01:25:31.069Z,19.43
2022-08-17T01:28:33.209Z,19.39
2022-08-17T01:31:22.447Z,19.38
2022-08-17T01:34:10.558Z,19.31
2022-08-17T01:36:55.557Z,19.27
2022-08-17T01:39:49.501Z,19.29
2022-08-17T01:42:48.369Z,19.27
2022-08-17T01:45:39.083Z,19.25
2022-08-17T01:48:29.288Z,19.26
2022-08-17T01:51:15.418Z,19.25
2022-08-17T01:54:05.278Z,19.23
2022-08-17T01:56:52.120Z,19.19
2022-08-17T01:59:37.390Z,19.25
2022-08-17T02:02:31.395Z,19.23
2022-08-17T02:05:16.927Z,19.21
2022-08-17T02:08:03.068Z,19.22
2022-08-17T02:10:51.513Z,19.23
2022-08-17T02:13:36.606Z,19.24
2022-08-17T02:16:22.198Z,19.24
2022-08-17T02:19:10.717Z,19.20
2022-08-17T02:21:55.806Z,19.25
2022-08-17T02:25:00.888Z,19.25
2022-08-17T02:27:46.765Z,19.21
2022-08-17T02:31:00.816Z,19.17
2022-08-17T02:33:42.644Z,19.15
2022-08-17T02:36:29.070Z,18.97
2022-08-17T02:39:14.223Z,19.00
2022-08-17T02:42:02.114Z,19.07
2022-08-17T02:44:47.610Z,19.12
2022-08-17T02:47:33.520Z,19.14
2022-08-17T02:50:22.631Z,19.13
2022-08-17T02:53:08.072Z,19.06
2022-08-17T02:55:53.437Z,19.01
2022-08-17T02:58:38.827Z,18.95
2022-08-17T03:01:24.494Z,18.89
2022-08-17T03:04:09.772Z,18.87
2022-08-17T03:06:55.060Z,18.82
2022-08-17T03:09:40.549Z,18.77
2022-08-17T03:12:29.129Z,18.74
2022-08-17T03:15:19.129Z,18.73
2022-08-17T03:18:04.326Z,18.77
2022-08-17T03:20:49.225Z,18.84
2022-08-17T03:23:34.987Z,18.85
2022-08-17T03:26:20.252Z,18.81
2022-08-17T03:29:05.714Z,18.76
2022-08-17T03:31:51.199Z,18.60
2022-08-17T03:34:36.177Z,18.67
2022-08-17T03:37:20.985Z,18.66
2022-08-17T03:40:08.359Z,18.60
2022-08-17T03:42:53.585Z,18.58
2022-08-17T03:45:39.045Z,18.54
2022-08-17T03:48:24.928Z,18.50
2022-08-17T03:51:17.365Z,18.45
2022-08-17T03:54:02.614Z,18.40
2022-08-17T03:57:02.728Z,18.41
2022-08-17T03:59:48.200Z,18.39
2022-08-17T04:02:33.996Z,18.38
2022-08-17T04:05:19.764Z,18.37
2022-08-17T04:08:05.612Z,18.35
2022-08-17T04:10:51.489Z,18.34
2022-08-17T04:13:36.910Z,18.35
2022-08-17T04:16:25.794Z,18.36
2022-08-17T04:19:11.102Z,18.37
2022-08-17T04:21:57.030Z,18.39
2022-08-17T04:24:42.259Z,18.38
2022-08-17T04:27:27.652Z,18.44
2022-08-17T04:30:13.258Z,18.47
2022-08-17T04:33:11.293Z,18.57
2022-08-17T04:36:00.133Z,18.63
2022-08-17T04:38:45.857Z,18.67
2022-08-17T04:41:30.853Z,18.68
2022-08-17T04:44:36.772Z,18.71
2022-08-17T04:47:21.389Z,18.61
2022-08-17T04:50:07.377Z,18.67
2022-08-17T04:52:52.509Z,18.74
2022-08-17T04:55:38.013Z,18.78
2022-08-17T04:58:23.181Z,18.78
2022-08-17T05:01:09.236Z,18.81
2022-08-17T05:03:57.241Z,18.87
2022-08-17T05:06:43.500Z,18.90
2022-08-17T05:09:28.450Z,18.92
2022-08-17T05:12:15.541Z,18.97
2022-08-17T05:15:00.874Z,19.00
2022-08-17T05:17:46.761Z,19.06
2022-08-17T05:20:33.341Z,19.12
2022-08-17T05:23:20.469Z,19.18
2022-08-17T05:26:06.249Z,19.20
2022-08-17T05:28:58.538Z,19.25
2022-08-17T05:31:45.084Z,19.32
2022-08-17T05:34:30.121Z,19.37
2022-08-17T05:37:15.494Z,19.42
2022-08-17T05:40:01.126Z,19.46
2022-08-17T05:42:47.055Z,19.56
2022-08-17T05:45:54.505Z,19.60
2022-08-17T05:48:42.166Z,19.63
2022-08-17T05:51:56.614Z,19.70
2022-08-17T05:55:20.440Z,19.77
2022-08-17T05:58:17.602Z,19.91
2022-08-17T06:01:16.833Z,19.96
2022-08-17T06:04:39.714Z,20.05
2022-08-17T06:07:49.528Z,20.18
2022-08-17T06:10:50.087Z,20.31
2022-08-17T06:13:41.243Z,20.47
2022-08-17T06:16:34.758Z,20.61
2022-08-17T06:19:31.291Z,20.81
2022-08-17T06:22:20.145Z,20.96
2022-08-17T06:25:14.357Z,21.10
2022-08-17T06:28:07.931Z,21.17
2022-08-17T06:31:02.150Z,21.30
2022-08-17T06:33:47.238Z,21.53
2022-08-17T06:36:48.288Z,21.65
2022-08-17T06:39:39.847Z,21.77
2022-08-17T06:43:02.424Z,21.91
2022-08-17T06:45:50.173Z,22.17
2022-08-17T06:48:40.404Z,22.23
2022-08-17T06:51:35.746Z,22.31
2022-08-17T06:54:30.946Z,22.42
2022-08-17T06:57:27.625Z,22.52
2022-08-17T07:00:16.267Z,22.65
2022-08-17T07:03:13.899Z,22.78
2022-08-17T07:06:05.543Z,22.96
2022-08-17T07:09:03.722Z,23.10
2022-08-17T07:11:48.721Z,23.27
2022-08-17T07:14:48.386Z,23.43
2022-08-17T07:17:46.522Z,23.63
2022-08-17T07:20:43.389Z,23.79
2022-08-17T07:23:45.363Z,24.15
2022-08-17T07:26:30.128Z,24.32
2022-08-17T07:29:18.577Z,24.54
2022-08-17T07:32:04.961Z,24.72
2022-08-17T07:35:08.185Z,24.98
2022-08-17T07:38:26.906Z,25.22
2022-08-17T07:41:11.953Z,25.38
2022-08-17T07:43:57.083Z,25.46
2022-08-17T07:46:53.722Z,25.61
2022-08-17T07:49:44.651Z,25.85
2022-08-17T07:52:51.714Z,26.02
2022-08-17T07:55:37.288Z,26.05
2022-08-17T07:58:23.769Z,26.04
2022-08-17T08:01:14.468Z,26.05
2022-08-17T08:04:00.382Z,25.90
2022-08-17T08:06:51.524Z,25.91
2022-08-17T08:09:44.540Z,25.92
2022-08-17T08:12:36.718Z,25.94
2022-08-17T08:15:25.869Z,25.98
2022-08-17T08:18:53.587Z,25.87
2022-08-17T08:21:47.383Z,26.08
2022-08-17T08:24:50.804Z,26.22
2022-08-17T08:27:53.089Z,26.30
2022-08-17T08:30:45.669Z,26.48
2022-08-17T08:33:33.803Z,26.58
2022-08-17T08:37:15.992Z,26.72
2022-08-17T08:40:35.600Z,27.19
2022-08-17T08:43:44.063Z,27.48
2022-08-17T08:46:35.067Z,27.72
2022-08-17T08:50:03.580Z,27.77
2022-08-17T08:53:03.376Z,27.84
2022-08-17T08:55:58.203Z,28.34
2022-08-17T08:58:49.498Z,29.01
2022-08-17T09:01:59.408Z,29.89
2022-08-17T09:05:10.529Z,30.74
2022-08-17T09:08:04.547Z,31.58
2022-08-17T09:11:01.884Z,32.11
2022-08-17T09:13:55.571Z,32.59
2022-08-17T09:16:45.373Z,32.58
2022-08-17T09:19:38.523Z,32.72
2022-08-17T09:22:27.924Z,32.56
2022-08-17T09:25:23.935Z,32.94
2022-08-17T09:28:19.242Z,33.20
2022-08-17T09:31:11.964Z,33.23
2022-08-17T09:33:59.876Z,32.75
2022-08-17T09:37:11.377Z,32.45
2022-08-17T09:40:17.246Z,32.24
2022-08-17T09:43:25.113Z,32.12
2022-08-17T09:46:19.568Z,31.90
2022-08-17T09:49:25.380Z,31.83
2022-08-17T09:52:23.230Z,31.45
2022-08-17T09:55:09.443Z,31.21
2022-08-17T09:58:09.591Z,31.02
2022-08-17T10:01:14.106Z,31.05
2022-08-17T10:04:27.444Z,30.95
2022-08-17T10:07:31.194Z,30.64
2022-08-17T10:10:25.313Z,30.84
2022-08-17T10:13:19.099Z,30.72
2022-08-17T10:16:14.852Z,30.66
2022-08-17T10:19:10.283Z,30.60
2022-08-17T10:22:01.539Z,30.46
2022-08-17T10:25:21.067Z,30.36
2022-08-17T10:28:19.687Z,30.50
2022-08-17T10:34:48.559Z,29.83
2022-08-17T10:37:57.349Z,29.86
2022-08-17T10:40:58.348Z,29.94
2022-08-17T10:44:38.974Z,29.88
2022-08-17T10:47:19.425Z,29.99
2022-08-17T10:50:45.609Z,29.86
2022-08-17T10:53:36.439Z,29.71
2022-08-17T10:56:38.185Z,29.58
2022-08-17T10:59:35.368Z,29.62
2022-08-17T11:02:38.697Z,29.48
2022-08-17T11:05:43.696Z,29.40
2022-08-17T11:08:44.644Z,29.26
2022-08-17T11:11:58.599Z,29.10
2022-08-17T11:15:17.790Z,29.03
2022-08-17T11:18:40.908Z,28.80
2022-08-17T11:22:13.264Z,28.70
2022-08-17T11:25:12.630Z,28.62
2022-08-17T11:28:09.175Z,28.26
2022-08-17T11:31:38.787Z,28.00
2022-08-17T11:34:30.914Z,27.99
2022-08-17T11:37:21.936Z,27.86
2022-08-17T11:40:19.793Z,27.96
2022-08-17T11:43:31.022Z,27.94
2022-08-17T11:46:41.465Z,28.07
2022-08-17T11:49:41.772Z,28.22
2022-08-17T11:52:47.017Z,28.29
2022-08-17T11:55:37.494Z,28.39
2022-08-17T11:58:34.537Z,28.49
2022-08-17T12:01:22.830Z,28.41
2022-08-17T12:04:20.696Z,28.53
2022-08-17T12:07:20.557Z,28.53
2022-08-17T12:10:05.934Z,28.59
2022-08-17T12:12:53.952Z,28.12
2022-08-17T12:15:43.806Z,28.20
2022-08-17T12:18:32.170Z,27.94
2022-08-17T12:21:33.189Z,27.52
2022-08-17T12:24:31.412Z,27.23
2022-08-17T12:28:04.939Z,26.67
2022-08-17T12:30:29.981Z,26.42
2022-08-17T12:33:25.273Z,26.50
2022-08-17T12:36:15.752Z,26.50
2022-08-17T12:39:14.512Z,26.58
2022-08-17T12:42:02.537Z,26.32
2022-08-17T12:44:50.128Z,26.38
2022-08-17T12:47:37.782Z,26.33
2022-08-17T12:50:28.495Z,26.30
2022-08-17T12:53:23.952Z,26.34
2022-08-17T12:56:13.145Z,26.28
2022-08-17T12:58:58.622Z,26.27
2022-08-17T13:01:44.259Z,26.28
2022-08-17T13:04:31.213Z,26.27
2022-08-17T13:07:33.615Z,26.56
2022-08-17T13:10:33.148Z,26.45
2022-08-17T13:13:26.025Z,26.51
2022-08-17T13:16:14.235Z,26.60
2022-08-17T13:19:41.170Z,26.72
2022-08-17T13:22:28.747Z,26.71
2022-08-17T13:25:16.560Z,26.80
2022-08-17T13:28:03.083Z,26.74
2022-08-17T13:30:48.357Z,26.83
2022-08-17T13:33:43.457Z,26.70
2022-08-17T13:36:30.458Z,26.79
2022-08-17T13:39:22.206Z,26.80
2022-08-17T13:42:31.778Z,26.56
2022-08-17T13:45:36.227Z,26.69
2022-08-17T13:48:30.473Z,26.83
2022-08-17T13:51:24.420Z,26.81
2022-08-17T13:54:19.486Z,26.78
2022-08-17T13:57:21.490Z,26.77
2022-08-17T14:00:16.017Z,26.83
2022-08-17T14:03:04.163Z,26.91
2022-08-17T14:05:51.276Z,26.91
2022-08-17T14:08:36.936Z,26.93
2022-08-17T14:11:23.566Z,26.98
2022-08-17T14:14:09.034Z,26.94
2022-08-17T14:16:55.116Z,27.07
2022-08-17T14:19:40.169Z,27.24
2022-08-17T14:22:32.453Z,27.35
2022-08-17T14:25:25.341Z,27.51
2022-08-17T14:28:10.741Z,27.56
2022-08-17T14:30:55.677Z,27.57
2022-08-17T14:33:41.069Z,27.50
2022-08-17T14:36:26.506Z,27.50
2022-08-17T14:39:13.118Z,27.57
2022-08-17T14:41:58.335Z,27.67
2022-08-17T14:44:43.837Z,27.74
2022-08-17T14:47:29.079Z,27.93
2022-08-17T14:50:15.140Z,28.06
2022-08-17T14:53:06.839Z,28.03
2022-08-17T14:55:52.246Z,28.26
2022-08-17T14:58:37.669Z,28.23
2022-08-17T15:01:25.619Z,28.32
2022-08-17T15:04:10.908Z,28.36
2022-08-17T15:06:56.362Z,28.50
2022-08-17T15:09:41.542Z,28.50
2022-08-17T15:12:32.033Z,28.45
2022-08-17T15:15:18.243Z,28.53
2022-08-17T15:18:03.991Z,28.87
2022-08-17T15:20:49.672Z,28.96
2022-08-17T15:23:35.591Z,28.87
2022-08-17T15:26:26.043Z,28.88
2022-08-17T15:29:11.623Z,28.95
2022-08-17T15:32:00.625Z,28.92
2022-08-17T15:34:45.902Z,28.83
2022-08-17T15:37:31.386Z,28.56
2022-08-17T15:40:16.521Z,28.50
2022-08-17T15:43:10.259Z,28.28
2022-08-17T15:46:06.586Z,28.21
2022-08-17T15:48:54.415Z,28.35
2022-08-17T15:51:39.425Z,28.33
2022-08-17T15:54:24.781Z,28.29
2022-08-17T15:57:16.853Z,28.27
2022-08-17T16:00:03.466Z,28.12
2022-08-17T16:03:45.010Z,27.99
2022-08-17T16:05:53.870Z,27.94
2022-08-17T16:08:40.551Z,28.09
2022-08-17T16:11:25.588Z,28.20
2022-08-17T16:14:10.892Z,28.22
2022-08-17T16:16:59.851Z,28.21
2022-08-17T16:19:45.451Z,28.14
2022-08-17T16:22:44.120Z,28.07
2022-08-17T16:25:52.169Z,28.08
2022-08-17T16:28:36.703Z,28.16
2022-08-17T16:31:22.726Z,28.11
2022-08-17T16:34:17.670Z,28.09
2022-08-17T16:37:03.853Z,27.81
2022-08-17T16:39:49.348Z,27.84
2022-08-17T16:42:36.061Z,27.97
2022-08-17T16:45:27.710Z,27.99
2022-08-17T16:48:12.759Z,27.99
2022-08-17T16:51:03.042Z,27.86
2022-08-17T16:53:57.850Z,27.84
2022-08-17T16:56:44.705Z,27.70
2022-08-17T16:59:30.782Z,27.76
2022-08-17T17:02:33.883Z,27.46
2022-08-17T17:05:46.709Z,27.55
2022-08-17T17:08:51.090Z,27.48
2022-08-17T17:11:50.697Z,27.54
2022-08-17T17:14:40.012Z,27.56
2022-08-17T17:17:34.979Z,27.48
2022-08-17T17:20:26.607Z,27.41
2022-08-17T17:23:26.381Z,27.38
2022-08-17T17:26:29.873Z,27.14
2022-08-17T17:30:08.807Z,27.03
2022-08-17T17:33:14.358Z,26.92
2022-08-17T17:36:05.142Z,26.78
2022-08-17T17:38:54.158Z,26.71
2022-08-17T17:41:51.325Z,26.72
2022-08-17T17:44:48.302Z,26.54
2022-08-17T17:47:36.116Z,26.50
2022-08-17T17:50:32.855Z,26.25
2022-08-17T17:53:41.517Z,26.08
2022-08-17T17:56:43.263Z,26.03
2022-08-17T17:59:44.398Z,25.94
2022-08-17T18:02:52.876Z,25.87
2022-08-17T18:06:19.005Z,25.86
2022-08-17T18:09:39.162Z,25.75
2022-08-17T18:12:50.605Z,25.64
2022-08-17T18:15:56.192Z,25.68
2022-08-17T18:18:48.797Z,25.54
2022-08-17T18:21:40.755Z,25.42
2022-08-17T18:24:32.460Z,25.36
2022-08-17T18:27:22.663Z,25.23
2022-08-17T18:30:14.274Z,25.16
2022-08-17T18:33:29.187Z,25.03
2022-08-17T18:36:28.732Z,25.04
2022-08-17T18:39:19.504Z,24.93
2022-08-17T18:42:24.848Z,24.86
2022-08-17T18:45:10.118Z,24.95
2022-08-17T18:47:56.009Z,24.82
2022-08-17T18:50:41.531Z,24.81
2022-08-17T18:56:31.575Z,24.62
2022-08-17T18:59:43.319Z,24.64
2022-08-17T19:02:44.262Z,24.58
2022-08-17T19:05:40.694Z,24.54
2022-08-17T19:08:28.568Z,24.41
2022-08-17T19:11:25.678Z,24.38
2022-08-17T19:14:13.429Z,24.31
2022-08-17T19:17:16.711Z,24.38
2022-08-17T19:20:10.742Z,24.28
2022-08-17T19:23:10.083Z,24.23
2022-08-17T19:25:59.134Z,24.25
2022-08-17T19:28:58.341Z,24.14
2022-08-17T19:31:45.107Z,23.98
2022-08-17T19:34:34.603Z,24.00
2022-08-17T19:37:49.727Z,23.91
2022-08-17T19:40:55.057Z,23.86
2022-08-17T19:43:57.557Z,23.66
2022-08-17T19:47:30.760Z,23.72
2022-08-17T19:50:31.879Z,23.62
2022-08-17T19:53:36.723Z,23.63
2022-08-17T19:56:49.178Z,23.56
2022-08-17T19:59:56.252Z,23.48
2022-08-17T20:02:57.933Z,23.52
2022-08-17T20:06:11.642Z,23.48
2022-08-17T20:09:09.498Z,23.47
2022-08-17T20:12:01.379Z,23.42
2022-08-17T20:15:02.803Z,23.39
2022-08-17T20:17:48.482Z,23.32
2022-08-17T20:20:43.395Z,23.30
2022-08-17T20:24:03.002Z,23.11
2022-08-17T20:26:59.318Z,23.10
2022-08-17T20:30:06.156Z,23.09
2022-08-17T20:32:54.528Z,23.10
2022-08-17T20:35:59.373Z,23.08
2022-08-17T20:38:52.264Z,23.03
2022-08-17T20:42:23.526Z,22.98
2022-08-17T20:45:20.730Z,22.92
2022-08-17T20:51:46.000Z,22.76
2022-08-17T20:54:53.893Z,22.63
2022-08-17T20:57:39.157Z,22.66
2022-08-17T21:00:27.584Z,22.65
2022-08-17T21:03:50.938Z,22.66
2022-08-17T21:07:15.201Z,22.66
2022-08-17T21:10:17.864Z,22.61
2022-08-17T21:13:28.978Z,22.55
2022-08-17T21:16:36.051Z,22.50
2022-08-17T21:19:44.461Z,22.37
2022-08-17T21:23:10.094Z,22.19
2022-08-17T21:26:08.694Z,22.15
2022-08-17T21:29:30.878Z,22.19
2022-08-17T21:32:20.360Z,22.13
2022-08-17T21:35:26.515Z,22.11
2022-08-17T21:38:13.641Z,22.18
2022-08-17T21:40:58.621Z,22.15
2022-08-17T21:43:48.941Z,22.16
2022-08-17T21:46:38.340Z,22.10
2022-08-17T21:49:26.860Z,22.08
2022-08-17T21:52:15.183Z,22.03
2022-08-17T21:55:01.696Z,22.01
2022-08-17T21:58:13.359Z,21.94
2022-08-17T22:01:20.223Z,21.91
2022-08-17T22:04:17.691Z,21.90
2022-08-17T22:07:06.224Z,21.80
2022-08-17T22:09:51.663Z,21.76
2022-08-17T22:12:37.188Z,21.73
2022-08-17T22:15:22.438Z,21.68
2022-08-17T22:18:21.717Z,21.69
2022-08-17T22:21:07.757Z,21.55
2022-08-17T22:24:06.173Z,21.47
2022-08-17T22:27:10.915Z,21.37
2022-08-17T22:29:58.470Z,21.32
2022-08-17T22:32:46.613Z,21.24
2022-08-17T22:35:33.681Z,21.10
2022-08-17T22:38:18.712Z,21.07
2022-08-17T22:41:19.077Z,21.10
2022-08-17T22:44:16.543Z,20.99
2022-08-17T22:47:23.914Z,20.97
2022-08-17T22:50:22.327Z,20.98
2022-08-17T22:53:18.525Z,20.94
2022-08-17T22:56:04.939Z,20.83
2022-08-17T22:58:58.649Z,20.81
2022-08-17T23:02:05.917Z,20.61
2022-08-17T23:04:55.392Z,20.69
2022-08-17T23:07:43.290Z,20.69
2022-08-17T23:10:34.004Z,20.57
2022-08-17T23:13:19.549Z,20.53
2022-08-17T23:16:04.934Z,20.52
2022-08-17T23:18:51.169Z,20.49
2022-08-17T23:21:37.394Z,20.45
2022-08-17T23:24:25.322Z,20.44
2022-08-17T23:27:11.706Z,20.44
2022-08-17T23:29:57.361Z,20.40
2022-08-17T23:32:44.319Z,20.30
2022-08-17T23:35:38.898Z,20.25
2022-08-17T23:38:27.319Z,20.23
2022-08-17T23:41:19.044Z,20.23
2022-08-17T23:44:05.761Z,20.22
2022-08-17T23:46:52.063Z,20.18
2022-08-17T23:49:38.056Z,20.13
2022-08-17T23:52:23.052Z,20.05
2022-08-17T23:55:09.504Z,19.93
2022-08-17T23:57:54.830Z,19.76
